sensor_id;sensor_type;location;lat;lon;timestamp;pressure;altitude;pressure_sealevel;temperature;humidity
72061;BME280;59925;52.136;5.420;2023-04-09T00:01:31;102812.00;;;9.13;80.50
72061;BME280;59925;52.136;5.420;2023-04-09T00:03:58;102813.84;;;9.12;80.32
72061;BME280;59925;52.136;5.420;2023-04-09T00:06:24;102817.53;;;9.11;80.59
72061;BME280;59925;52.136;5.420;2023-04-09T00:08:51;102810.16;;;9.07;80.52
72061;BME280;59925;52.136;5.420;2023-04-09T00:11:18;102809.13;;;9.08;80.96
72061;BME280;59925;52.136;5.420;2023-04-09T00:13:44;102812.63;;;9.08;80.70
72061;BME280;59925;52.136;5.420;2023-04-09T00:16:11;102814.06;;;9.11;80.69
72061;BME280;59925;52.136;5.420;2023-04-09T00:18:37;102814.25;;;9.09;80.71
72061;BME280;59925;52.136;5.420;2023-04-09T00:21:03;102813.03;;;9.12;80.56
72061;BME280;59925;52.136;5.420;2023-04-09T00:23:30;102812.19;;;9.11;80.73
72061;BME280;59925;52.136;5.420;2023-04-09T00:25:57;102807.25;;;9.15;80.86
72061;BME280;59925;52.136;5.420;2023-04-09T00:28:23;102805.19;;;9.17;80.58
72061;BME280;59925;52.136;5.420;2023-04-09T00:30:50;102803.53;;;9.16;80.28
72061;BME280;59925;52.136;5.420;2023-04-09T00:33:16;102806.66;;;9.13;80.65
72061;BME280;59925;52.136;5.420;2023-04-09T00:35:43;102796.53;;;9.15;80.93
72061;BME280;59925;52.136;5.420;2023-04-09T00:38:09;102800.47;;;9.12;80.77
72061;BME280;59925;52.136;5.420;2023-04-09T00:40:36;102794.50;;;9.10;80.75
72061;BME280;59925;52.136;5.420;2023-04-09T00:43:02;102796.16;;;9.11;80.61
72061;BME280;59925;52.136;5.420;2023-04-09T00:45:29;102798.00;;;9.11;80.94
72061;BME280;59925;52.136;5.420;2023-04-09T00:47:55;102795.13;;;9.12;80.84
72061;BME280;59925;52.136;5.420;2023-04-09T00:50:22;102786.69;;;9.09;80.79
72061;BME280;59925;52.136;5.420;2023-04-09T00:52:48;102791.81;;;9.10;81.07
72061;BME280;59925;52.136;5.420;2023-04-09T00:55:15;102791.81;;;9.10;81.19
72061;BME280;59925;52.136;5.420;2023-04-09T00:57:43;102785.84;;;9.08;81.06
72061;BME280;59925;52.136;5.420;2023-04-09T01:00:10;102785.66;;;9.10;80.72
72061;BME280;59925;52.136;5.420;2023-04-09T01:02:38;102779.28;;;9.11;80.96
72061;BME280;59925;52.136;5.420;2023-04-09T01:05:05;102788.13;;;9.11;81.30
72061;BME280;59925;52.136;5.420;2023-04-09T01:08:03;102786.69;;;9.09;80.97
72061;BME280;59925;52.136;5.420;2023-04-09T01:10:53;102781.75;;;9.05;81.04
72061;BME280;59925;52.136;5.420;2023-04-09T01:13:29;102780.94;;;9.05;81.52
72061;BME280;59925;52.136;5.420;2023-04-09T01:16:01;102777.44;;;9.04;81.74
72061;BME280;59925;52.136;5.420;2023-04-09T01:18:35;102777.25;;;8.99;81.53
72061;BME280;59925;52.136;5.420;2023-04-09T01:21:12;102772.31;;;9.03;81.70
72061;BME280;59925;52.136;5.420;2023-04-09T01:26:44;102773.97;;;8.97;81.71
72061;BME280;59925;52.136;5.420;2023-04-09T01:29:20;102772.09;;;8.98;81.87
72061;BME280;59925;52.136;5.420;2023-04-09T01:31:48;102776.03;;;8.95;81.51
72061;BME280;59925;52.136;5.420;2023-04-09T01:34:15;102774.16;;;8.96;81.43
72061;BME280;59925;52.136;5.420;2023-04-09T01:36:49;102770.69;;;8.95;81.67
72061;BME280;59925;52.136;5.420;2023-04-09T01:39:17;102770.28;;;8.98;81.52
72061;BME280;59925;52.136;5.420;2023-04-09T01:41:45;102764.91;;;8.98;81.66
72061;BME280;59925;52.136;5.420;2023-04-09T01:44:13;102759.75;;;8.97;81.78
72061;BME280;59925;52.136;5.420;2023-04-09T01:46:40;102762.44;;;8.97;81.60
72061;BME280;59925;52.136;5.420;2023-04-09T01:49:08;102754.41;;;8.97;81.83
72061;BME280;59925;52.136;5.420;2023-04-09T01:51:35;102768.63;;;8.97;81.97
72061;BME280;59925;52.136;5.420;2023-04-09T01:54:03;102766.56;;;8.99;81.56
72061;BME280;59925;52.136;5.420;2023-04-09T01:56:43;102763.88;;;8.99;81.89
72061;BME280;59925;52.136;5.420;2023-04-09T01:59:10;102756.66;;;9.00;81.68
72061;BME280;59925;52.136;5.420;2023-04-09T02:01:44;102760.56;;;9.04;81.74
72061;BME280;59925;52.136;5.420;2023-04-09T02:04:21;102748.84;;;9.05;81.82
72061;BME280;59925;52.136;5.420;2023-04-09T02:09:36;102755.63;;;9.01;81.93
72061;BME280;59925;52.136;5.420;2023-04-09T02:12:06;102751.53;;;8.98;81.91
72061;BME280;59925;52.136;5.420;2023-04-09T02:14:36;102753.78;;;9.01;82.06
72061;BME280;59925;52.136;5.420;2023-04-09T02:17:03;102756.03;;;9.04;81.84
72061;BME280;59925;52.136;5.420;2023-04-09T02:19:39;102755.84;;;9.06;81.53
72061;BME280;59925;52.136;5.420;2023-04-09T02:22:06;102751.72;;;9.03;81.43
72061;BME280;59925;52.136;5.420;2023-04-09T02:24:33;102737.31;;;9.04;81.79
72061;BME280;59925;52.136;5.420;2023-04-09T02:26:59;102737.53;;;9.03;81.48
72061;BME280;59925;52.136;5.420;2023-04-09T02:29:27;102736.06;;;9.00;81.51
72061;BME280;59925;52.136;5.420;2023-04-09T02:31:54;102736.06;;;9.00;81.50
72061;BME280;59925;52.136;5.420;2023-04-09T02:34:21;102737.72;;;9.01;81.93
72061;BME280;59925;52.136;5.420;2023-04-09T02:36:47;102732.19;;;9.03;81.89
72061;BME280;59925;52.136;5.420;2023-04-09T02:39:14;102733.59;;;9.05;81.87
72061;BME280;59925;52.136;5.420;2023-04-09T02:41:40;102740.59;;;9.07;81.63
72061;BME280;59925;52.136;5.420;2023-04-09T02:44:07;102742.25;;;9.08;81.65
72061;BME280;59925;52.136;5.420;2023-04-09T02:46:33;102736.88;;;9.08;81.77
72061;BME280;59925;52.136;5.420;2023-04-09T02:49:00;102731.53;;;9.08;81.59
72061;BME280;59925;52.136;5.420;2023-04-09T02:51:26;102735.25;;;9.07;81.55
72061;BME280;59925;52.136;5.420;2023-04-09T02:53:53;102732.19;;;9.03;81.68
72061;BME280;59925;52.136;5.420;2023-04-09T02:56:19;102727.84;;;9.02;81.94
72061;BME280;59925;52.136;5.420;2023-04-09T02:58:46;102725.19;;;9.02;81.71
72061;BME280;59925;52.136;5.420;2023-04-09T03:01:14;102727.63;;;9.03;81.88
72061;BME280;59925;52.136;5.420;2023-04-09T03:03:41;102729.28;;;9.04;82.04
72061;BME280;59925;52.136;5.420;2023-04-09T03:06:09;102722.91;;;9.05;81.78
72061;BME280;59925;52.136;5.420;2023-04-09T03:08:35;102717.31;;;9.07;81.70
72061;BME280;59925;52.136;5.420;2023-04-09T03:11:02;102724.31;;;9.08;81.75
72061;BME280;59925;52.136;5.420;2023-04-09T03:13:28;102730.50;;;9.09;81.67
72061;BME280;59925;52.136;5.420;2023-04-09T03:15:55;102724.13;;;9.10;81.56
72061;BME280;59925;52.136;5.420;2023-04-09T03:18:22;102721.63;;;9.08;81.71
72061;BME280;59925;52.136;5.420;2023-04-09T03:20:48;102723.94;;;9.04;82.03
72061;BME280;59925;52.136;5.420;2023-04-09T03:23:15;102723.53;;;9.01;82.37
72061;BME280;59925;52.136;5.420;2023-04-09T03:25:41;102720.88;;;9.01;82.02
72061;BME280;59925;52.136;5.420;2023-04-09T03:28:08;102716.53;;;9.00;82.06
72061;BME280;59925;52.136;5.420;2023-04-09T03:30:34;102720.88;;;8.94;82.27
72061;BME280;59925;52.136;5.420;2023-04-09T03:33:00;102714.69;;;8.94;82.32
72061;BME280;59925;52.136;5.420;2023-04-09T03:35:27;102706.91;;;8.92;81.94
72061;BME280;59925;52.136;5.420;2023-04-09T03:37:53;102714.31;;;8.90;82.35
72061;BME280;59925;52.136;5.420;2023-04-09T03:40:20;102713.69;;;8.88;82.12
72061;BME280;59925;52.136;5.420;2023-04-09T03:42:46;102706.94;;;8.85;82.26
72061;BME280;59925;52.136;5.420;2023-04-09T03:45:12;102709.38;;;8.87;82.23
72061;BME280;59925;52.136;5.420;2023-04-09T03:47:39;102706.50;;;8.88;82.47
72061;BME280;59925;52.136;5.420;2023-04-09T03:50:06;102703.63;;;8.90;82.31
72061;BME280;59925;52.136;5.420;2023-04-09T03:52:32;102711.63;;;8.90;82.51
72061;BME280;59925;52.136;5.420;2023-04-09T03:54:59;102704.66;;;8.89;82.25
72061;BME280;59925;52.136;5.420;2023-04-09T03:57:25;102700.13;;;8.89;82.59
72061;BME280;59925;52.136;5.420;2023-04-09T03:59:52;102699.09;;;8.91;82.58
72061;BME280;59925;52.136;5.420;2023-04-09T04:02:18;102699.91;;;8.91;82.51
72061;BME280;59925;52.136;5.420;2023-04-09T04:04:45;102701.16;;;8.88;82.58
72061;BME280;59925;52.136;5.420;2023-04-09T04:07:11;102702.19;;;8.87;82.80
72061;BME280;59925;52.136;5.420;2023-04-09T04:09:38;102698.50;;;8.88;82.71
72061;BME280;59925;52.136;5.420;2023-04-09T04:12:04;102698.25;;;8.90;82.59
72061;BME280;59925;52.136;5.420;2023-04-09T04:14:31;102701.78;;;8.91;82.59
72061;BME280;59925;52.136;5.420;2023-04-09T04:16:57;102702.59;;;8.91;82.24
72061;BME280;59925;52.136;5.420;2023-04-09T04:19:23;102695.59;;;8.90;82.38
72061;BME280;59925;52.136;5.420;2023-04-09T04:21:50;102697.47;;;8.89;82.49
72061;BME280;59925;52.136;5.420;2023-04-09T04:24:16;102699.75;;;8.86;82.43
72061;BME280;59925;52.136;5.420;2023-04-09T04:26:46;102690.06;;;8.85;82.55
72061;BME280;59925;52.136;5.420;2023-04-09T04:29:12;102691.09;;;8.84;82.73
72061;BME280;59925;52.136;5.420;2023-04-09T04:31:39;102689.66;;;8.81;82.38
72061;BME280;59925;52.136;5.420;2023-04-09T04:34:05;102684.31;;;8.81;82.43
72061;BME280;59925;52.136;5.420;2023-04-09T04:36:32;102693.16;;;8.82;82.60
72061;BME280;59925;52.136;5.420;2023-04-09T04:38:58;102695.84;;;8.82;82.72
72061;BME280;59925;52.136;5.420;2023-04-09T04:41:24;102693.97;;;8.82;82.65
72061;BME280;59925;52.136;5.420;2023-04-09T04:43:51;102692.31;;;8.81;82.50
72061;BME280;59925;52.136;5.420;2023-04-09T04:46:17;102698.69;;;8.80;82.75
72061;BME280;59925;52.136;5.420;2023-04-09T04:48:45;102698.69;;;8.80;83.10
72061;BME280;59925;52.136;5.420;2023-04-09T04:51:12;102693.97;;;8.82;83.02
72061;BME280;59925;52.136;5.420;2023-04-09T04:53:38;102694.81;;;8.83;82.91
72061;BME280;59925;52.136;5.420;2023-04-09T04:56:05;102696.88;;;8.81;82.84
72061;BME280;59925;52.136;5.420;2023-04-09T04:58:31;102694.19;;;8.81;82.82
72061;BME280;59925;52.136;5.420;2023-04-09T05:00:58;102692.53;;;8.80;82.69
72061;BME280;59925;52.136;5.420;2023-04-09T05:03:25;102698.69;;;8.80;82.59
72061;BME280;59925;52.136;5.420;2023-04-09T05:05:53;102684.75;;;8.78;82.48
72061;BME280;59925;52.136;5.420;2023-04-09T05:08:19;102691.13;;;8.77;82.37
72061;BME280;59925;52.136;5.420;2023-04-09T05:10:46;102685.97;;;8.76;82.19
72061;BME280;59925;52.136;5.420;2023-04-09T05:13:12;102687.63;;;8.77;82.25
72061;BME280;59925;52.136;5.420;2023-04-09T05:15:39;102688.44;;;8.77;82.43
72061;BME280;59925;52.136;5.420;2023-04-09T05:18:06;102692.53;;;8.80;82.38
72061;BME280;59925;52.136;5.420;2023-04-09T05:20:33;102687.19;;;8.80;82.40
72061;BME280;59925;52.136;5.420;2023-04-09T05:23:00;102682.88;;;8.79;82.48
72061;BME280;59925;52.136;5.420;2023-04-09T05:25:27;102683.09;;;8.77;82.40
72061;BME280;59925;52.136;5.420;2023-04-09T05:27:53;102694.00;;;8.76;82.43
72061;BME280;59925;52.136;5.420;2023-04-09T05:30:20;102689.91;;;8.73;82.31
72061;BME280;59925;52.136;5.420;2023-04-09T05:32:46;102684.56;;;8.73;82.46
72061;BME280;59925;52.136;5.420;2023-04-09T05:35:13;102690.94;;;8.72;82.46
72061;BME280;59925;52.136;5.420;2023-04-09T05:37:39;102692.78;;;8.71;82.51
72061;BME280;59925;52.136;5.420;2023-04-09T05:40:06;102696.69;;;8.69;82.55
72061;BME280;59925;52.136;5.420;2023-04-09T05:42:33;102701.41;;;8.67;82.27
72061;BME280;59925;52.136;5.420;2023-04-09T05:44:59;102698.56;;;8.68;82.52
72061;BME280;59925;52.136;5.420;2023-04-09T05:47:26;102696.69;;;8.69;82.11
72061;BME280;59925;52.136;5.420;2023-04-09T05:49:52;102690.13;;;8.71;81.94
72061;BME280;59925;52.136;5.420;2023-04-09T05:52:19;102697.69;;;8.74;82.22
72061;BME280;59925;52.136;5.420;2023-04-09T05:54:46;102698.72;;;8.73;82.27
72061;BME280;59925;52.136;5.420;2023-04-09T05:57:13;102716.63;;;8.73;81.90
72061;BME280;59925;52.136;5.420;2023-04-09T05:59:40;102708.84;;;8.71;81.75
72061;BME280;59925;52.136;5.420;2023-04-09T06:02:06;102710.47;;;8.72;81.72
72061;BME280;59925;52.136;5.420;2023-04-09T06:04:33;102704.72;;;8.69;81.71
72061;BME280;59925;52.136;5.420;2023-04-09T06:06:59;102706.34;;;8.70;81.30
72061;BME280;59925;52.136;5.420;2023-04-09T06:09:26;102707.81;;;8.72;81.36
72061;BME280;59925;52.136;5.420;2023-04-09T06:11:53;102706.34;;;8.77;81.62
72061;BME280;59925;52.136;5.420;2023-04-09T06:14:19;102699.34;;;8.76;81.32
72061;BME280;59925;52.136;5.420;2023-04-09T06:16:45;102712.31;;;8.72;80.92
72061;BME280;59925;52.136;5.420;2023-04-09T06:19:15;102705.72;;;8.74;81.23
72061;BME280;59925;52.136;5.420;2023-04-09T06:21:41;102702.03;;;8.76;80.74
72061;BME280;59925;52.136;5.420;2023-04-09T06:24:07;102698.13;;;8.78;80.80
72061;BME280;59925;52.136;5.420;2023-04-09T06:26:34;102718.88;;;8.83;80.75
72061;BME280;59925;52.136;5.420;2023-04-09T06:29:01;102711.47;;;8.85;80.77
72061;BME280;59925;52.136;5.420;2023-04-09T06:31:27;102717.63;;;8.85;80.37
72061;BME280;59925;52.136;5.420;2023-04-09T06:33:54;102711.03;;;8.88;80.39
72061;BME280;59925;52.136;5.420;2023-04-09T06:36:22;102718.44;;;8.93;80.37
72061;BME280;59925;52.136;5.420;2023-04-09T06:38:48;102721.50;;;8.96;80.60
72061;BME280;59925;52.136;5.420;2023-04-09T06:41:15;102719.22;;;9.00;80.59
72061;BME280;59925;52.136;5.420;2023-04-09T06:43:41;102724.75;;;9.05;80.96
72061;BME280;59925;52.136;5.420;2023-04-09T06:46:08;102729.88;;;9.07;80.65
72061;BME280;59925;52.136;5.420;2023-04-09T06:48:34;102723.28;;;9.09;80.67
72061;BME280;59925;52.136;5.420;2023-04-09T06:51:01;102728.84;;;9.14;80.84
72061;BME280;59925;52.136;5.420;2023-04-09T06:53:27;102720.41;;;9.11;80.83
72061;BME280;59925;52.136;5.420;2023-04-09T06:55:54;102726.56;;;9.11;80.41
72061;BME280;59925;52.136;5.420;2023-04-09T06:58:22;102726.16;;;9.14;80.79
72061;BME280;59925;52.136;5.420;2023-04-09T07:00:49;102735.41;;;9.18;80.92
72061;BME280;59925;52.136;5.420;2023-04-09T07:03:15;102731.09;;;9.17;81.11
72061;BME280;59925;52.136;5.420;2023-04-09T07:05:42;102736.44;;;9.17;81.17
72061;BME280;59925;52.136;5.420;2023-04-09T07:08:08;102733.94;;;9.23;80.88
72061;BME280;59925;52.136;5.420;2023-04-09T07:10:34;102725.88;;;9.29;81.03
72061;BME280;59925;52.136;5.420;2023-04-09T07:13:01;102735.72;;;9.35;81.10
72061;BME280;59925;52.136;5.420;2023-04-09T07:15:27;102729.50;;;9.42;80.81
72061;BME280;59925;52.136;5.420;2023-04-09T07:17:54;102735.84;;;9.47;80.46
72061;BME280;59925;52.136;5.420;2023-04-09T07:20:20;102730.88;;;9.58;79.88
72061;BME280;59925;52.136;5.420;2023-04-09T07:22:47;102740.03;;;9.69;79.61
72061;BME280;59925;52.136;5.420;2023-04-09T07:25:14;102733.59;;;9.76;78.72
72061;BME280;59925;52.136;5.420;2023-04-09T07:27:41;102737.72;;;9.79;77.99
72061;BME280;59925;52.136;5.420;2023-04-09T07:30:10;102736.56;;;9.93;77.74
72061;BME280;59925;52.136;5.420;2023-04-09T07:32:36;102738.72;;;10.10;77.31
72061;BME280;59925;52.136;5.420;2023-04-09T07:35:06;102734.22;;;10.29;76.61
72061;BME280;59925;52.136;5.420;2023-04-09T07:37:33;102734.47;;;10.46;76.58
72061;BME280;59925;52.136;5.420;2023-04-09T07:40:00;102737.78;;;10.67;76.00
72061;BME280;59925;52.136;5.420;2023-04-09T07:42:26;102740.84;;;10.70;75.05
72061;BME280;59925;52.136;5.420;2023-04-09T07:44:53;102733.31;;;10.79;74.73
72061;BME280;59925;52.136;5.420;2023-04-09T07:47:20;102732.03;;;11.00;74.79
72061;BME280;59925;52.136;5.420;2023-04-09T07:49:46;102725.56;;;11.20;74.48
72061;BME280;59925;52.136;5.420;2023-04-09T07:52:13;102736.53;;;11.37;72.60
72061;BME280;59925;52.136;5.420;2023-04-09T07:54:39;102731.72;;;11.39;72.51
72061;BME280;59925;52.136;5.420;2023-04-09T07:57:06;102727.94;;;11.59;72.16
72061;BME280;59925;52.136;5.420;2023-04-09T07:59:33;102727.03;;;11.77;71.53
72061;BME280;59925;52.136;5.420;2023-04-09T08:02:00;102732.28;;;11.72;70.84
72061;BME280;59925;52.136;5.420;2023-04-09T08:04:26;102717.78;;;11.61;70.27
72061;BME280;59925;52.136;5.420;2023-04-09T08:06:53;102725.94;;;11.66;69.83
72061;BME280;59925;52.136;5.420;2023-04-09T08:09:20;102723.34;;;11.47;70.21
72061;BME280;59925;52.136;5.420;2023-04-09T08:11:47;102728.75;;;11.59;69.80
72061;BME280;59925;52.136;5.420;2023-04-09T08:14:15;102733.34;;;11.71;70.16
72061;BME280;59925;52.136;5.420;2023-04-09T08:16:43;102728.13;;;12.00;69.58
72061;BME280;59925;52.136;5.420;2023-04-09T08:19:11;102727.09;;;12.36;68.79
72061;BME280;59925;52.136;5.420;2023-04-09T08:21:39;102726.72;;;12.56;69.22
72061;BME280;59925;52.136;5.420;2023-04-09T08:24:09;102719.13;;;12.53;67.84
72061;BME280;59925;52.136;5.420;2023-04-09T08:26:37;102732.59;;;12.41;67.53
72061;BME280;59925;52.136;5.420;2023-04-09T08:29:04;102722.44;;;12.44;67.89
72061;BME280;59925;52.136;5.420;2023-04-09T08:31:31;102719.31;;;12.76;68.09
72061;BME280;59925;52.136;5.420;2023-04-09T08:33:57;102731.84;;;12.82;66.64
72061;BME280;59925;52.136;5.420;2023-04-09T08:36:24;102729.69;;;12.84;65.82
72061;BME280;59925;52.136;5.420;2023-04-09T08:38:51;102735.50;;;12.40;67.19
72061;BME280;59925;52.136;5.420;2023-04-09T08:41:22;102732.34;;;12.31;67.35
72061;BME280;59925;52.136;5.420;2023-04-09T08:43:51;102725.09;;;12.55;66.87
72061;BME280;59925;52.136;5.420;2023-04-09T08:46:24;102732.69;;;12.99;66.22
72061;BME280;59925;52.136;5.420;2023-04-09T08:48:52;102727.66;;;13.32;65.81
72061;BME280;59925;52.136;5.420;2023-04-09T08:51:21;102733.59;;;13.46;65.49
72061;BME280;59925;52.136;5.420;2023-04-09T08:56:18;102729.44;;;12.97;64.72
72061;BME280;59925;52.136;5.420;2023-04-09T08:58:47;102724.50;;;12.65;64.31
72061;BME280;59925;52.136;5.420;2023-04-09T09:01:26;102717.34;;;12.71;64.71
72061;BME280;59925;52.136;5.420;2023-04-09T09:03:54;102716.31;;;13.01;65.52
72061;BME280;59925;52.136;5.420;2023-04-09T09:06:28;102721.19;;;13.16;64.71
72061;BME280;59925;52.136;5.420;2023-04-09T09:09:06;102717.47;;;13.34;65.12
72061;BME280;59925;52.136;5.420;2023-04-09T09:11:46;102720.09;;;13.75;64.12
72061;BME280;59925;52.136;5.420;2023-04-09T09:14:16;102712.53;;;13.77;63.25
72061;BME280;59925;52.136;5.420;2023-04-09T09:17:02;102708.97;;;13.88;62.59
72061;BME280;59925;52.136;5.420;2023-04-09T09:19:31;102713.03;;;14.08;62.97
72061;BME280;59925;52.136;5.420;2023-04-09T09:22:05;102707.72;;;13.96;62.31
72061;BME280;59925;52.136;5.420;2023-04-09T09:24:49;102707.59;;;14.25;61.54
72061;BME280;59925;52.136;5.420;2023-04-09T09:30:00;102703.72;;;14.16;61.74
72061;BME280;59925;52.136;5.420;2023-04-09T09:32:26;102700.44;;;14.14;61.36
72061;BME280;59925;52.136;5.420;2023-04-09T09:35:00;102698.81;;;13.95;62.46
72061;BME280;59925;52.136;5.420;2023-04-09T09:37:27;102695.81;;;14.31;62.13
72061;BME280;59925;52.136;5.420;2023-04-09T09:39:54;102696.50;;;14.21;61.10
72061;BME280;59925;52.136;5.420;2023-04-09T09:42:21;102696.25;;;14.23;61.46
72061;BME280;59925;52.136;5.420;2023-04-09T09:44:49;102688.78;;;13.91;60.46
72061;BME280;59925;52.136;5.420;2023-04-09T09:47:17;102693.78;;;13.82;60.65
72061;BME280;59925;52.136;5.420;2023-04-09T09:49:50;102692.56;;;13.73;60.98
72061;BME280;59925;52.136;5.420;2023-04-09T09:52:23;102697.91;;;14.07;61.18
72061;BME280;59925;52.136;5.420;2023-04-09T09:54:51;102692.03;;;14.10;60.90
72061;BME280;59925;52.136;5.420;2023-04-09T09:57:19;102691.41;;;14.42;60.84
72061;BME280;59925;52.136;5.420;2023-04-09T09:59:56;102678.06;;;14.57;59.33
72061;BME280;59925;52.136;5.420;2023-04-09T10:02:30;102679.16;;;14.34;59.82
72061;BME280;59925;52.136;5.420;2023-04-09T10:05:04;102684.97;;;14.48;60.13
72061;BME280;59925;52.136;5.420;2023-04-09T10:07:31;102680.75;;;14.75;59.35
72061;BME280;59925;52.136;5.420;2023-04-09T10:09:59;102675.94;;;15.04;59.37
72061;BME280;59925;52.136;5.420;2023-04-09T10:12:26;102669.63;;;15.21;57.57
72061;BME280;59925;52.136;5.420;2023-04-09T10:14:54;102666.44;;;15.29;58.05
72061;BME280;59925;52.136;5.420;2023-04-09T10:17:21;102663.22;;;15.32;58.17
72061;BME280;59925;52.136;5.420;2023-04-09T10:22:31;102650.59;;;15.43;58.18
72061;BME280;59925;52.136;5.420;2023-04-09T10:24:59;102656.47;;;16.05;57.07
72061;BME280;59925;52.136;5.420;2023-04-09T10:27:26;102654.81;;;15.99;56.13
72061;BME280;59925;52.136;5.420;2023-04-09T10:29:53;102640.81;;;16.12;55.54
72061;BME280;59925;52.136;5.420;2023-04-09T10:32:21;102640.56;;;15.76;55.01
72061;BME280;59925;52.136;5.420;2023-04-09T10:34:50;102634.22;;;15.98;55.88
72061;BME280;59925;52.136;5.420;2023-04-09T10:37:22;102636.00;;;16.24;56.02
72061;BME280;59925;52.136;5.420;2023-04-09T10:39:49;102626.38;;;16.60;55.74
72061;BME280;59925;52.136;5.420;2023-04-09T10:42:28;102626.50;;;17.11;52.33
72061;BME280;59925;52.136;5.420;2023-04-09T10:45:09;102626.41;;;16.70;52.47
72061;BME280;59925;52.136;5.420;2023-04-09T10:47:38;102630.91;;;16.38;53.28
72061;BME280;59925;52.136;5.420;2023-04-09T10:52:42;102615.03;;;16.78;53.80
72061;BME280;59925;52.136;5.420;2023-04-09T10:55:35;102618.91;;;17.19;53.71
72061;BME280;59925;52.136;5.420;2023-04-09T10:58:06;102619.16;;;17.38;51.92
72061;BME280;59925;52.136;5.420;2023-04-09T11:00:44;102615.66;;;17.22;51.42
72061;BME280;59925;52.136;5.420;2023-04-09T11:03:21;102613.59;;;16.39;51.37
72061;BME280;59925;52.136;5.420;2023-04-09T11:06:01;102604.91;;;16.32;52.81
72061;BME280;59925;52.136;5.420;2023-04-09T11:08:30;102596.41;;;16.97;52.24
72061;BME280;59925;52.136;5.420;2023-04-09T11:10:57;102599.66;;;17.46;51.79
72061;BME280;59925;52.136;5.420;2023-04-09T11:13:29;102601.56;;;17.25;48.80
72061;BME280;59925;52.136;5.420;2023-04-09T11:15:57;102596.13;;;17.14;49.50
72061;BME280;59925;52.136;5.420;2023-04-09T11:18:28;102603.72;;;17.28;49.49
72061;BME280;59925;52.136;5.420;2023-04-09T11:21:00;102604.00;;;17.21;49.42
72061;BME280;59925;52.136;5.420;2023-04-09T11:23:27;102591.78;;;17.50;49.74
72061;BME280;59925;52.136;5.420;2023-04-09T11:25:54;102588.13;;;18.06;47.79
72061;BME280;59925;52.136;5.420;2023-04-09T11:28:22;102591.94;;;17.95;46.53
72061;BME280;59925;52.136;5.420;2023-04-09T11:30:50;102588.47;;;17.73;47.09
72061;BME280;59925;52.136;5.420;2023-04-09T11:33:16;102588.47;;;17.68;46.12
72061;BME280;59925;52.136;5.420;2023-04-09T11:35:46;102586.06;;;17.56;47.27
72061;BME280;59925;52.136;5.420;2023-04-09T11:38:12;102583.94;;;17.33;46.68
72061;BME280;59925;52.136;5.420;2023-04-09T11:40:40;102585.28;;;17.35;47.41
72061;BME280;59925;52.136;5.420;2023-04-09T11:43:13;102577.09;;;17.71;47.84
72061;BME280;59925;52.136;5.420;2023-04-09T11:45:44;102585.13;;;18.07;46.69
72061;BME280;59925;52.136;5.420;2023-04-09T11:48:13;102589.53;;;17.88;44.59
72061;BME280;59925;52.136;5.420;2023-04-09T11:50:41;102592.88;;;17.02;45.61
72061;BME280;59925;52.136;5.420;2023-04-09T11:53:17;102591.75;;;16.82;47.49
72061;BME280;59925;52.136;5.420;2023-04-09T11:55:46;102579.31;;;17.49;46.64
72061;BME280;59925;52.136;5.420;2023-04-09T11:58:15;102581.59;;;18.12;46.39
72061;BME280;59925;52.136;5.420;2023-04-09T12:00:42;102571.31;;;17.93;45.09
72061;BME280;59925;52.136;5.420;2023-04-09T12:03:09;102577.50;;;18.15;44.38
72061;BME280;59925;52.136;5.420;2023-04-09T12:05:36;102575.63;;;18.05;44.02
72061;BME280;59925;52.136;5.420;2023-04-09T12:08:07;102562.09;;;17.95;43.51
72061;BME280;59925;52.136;5.420;2023-04-09T12:10:36;102578.78;;;17.31;44.69
72061;BME280;59925;52.136;5.420;2023-04-09T12:13:07;102573.91;;;16.87;46.10
72061;BME280;59925;52.136;5.420;2023-04-09T12:15:37;102564.13;;;16.91;46.24
72061;BME280;59925;52.136;5.420;2023-04-09T12:18:07;102567.34;;;17.55;46.06
72061;BME280;59925;52.136;5.420;2023-04-09T12:20:42;102563.81;;;17.70;44.31
72061;BME280;59925;52.136;5.420;2023-04-09T12:23:11;102567.78;;;18.03;43.35
72061;BME280;59925;52.136;5.420;2023-04-09T12:25:39;102558.63;;;17.73;44.91
72061;BME280;59925;52.136;5.420;2023-04-09T12:28:07;102555.34;;;17.82;43.99
72061;BME280;59925;52.136;5.420;2023-04-09T12:30:34;102554.41;;;18.22;43.31
72061;BME280;59925;52.136;5.420;2023-04-09T12:33:02;102564.03;;;18.44;42.45
72061;BME280;59925;52.136;5.420;2023-04-09T12:35:29;102567.59;;;18.40;42.25
72061;BME280;59925;52.136;5.420;2023-04-09T12:37:56;102565.00;;;18.64;42.22
72061;BME280;59925;52.136;5.420;2023-04-09T12:40:24;102562.34;;;18.93;41.77
72061;BME280;59925;52.136;5.420;2023-04-09T12:42:50;102562.19;;;19.14;41.86
72061;BME280;59925;52.136;5.420;2023-04-09T12:45:18;102558.22;;;19.30;41.88
72061;BME280;59925;52.136;5.420;2023-04-09T12:47:45;102559.28;;;19.35;41.30
72061;BME280;59925;52.136;5.420;2023-04-09T12:50:12;102550.91;;;19.31;40.67
72061;BME280;59925;52.136;5.420;2023-04-09T12:52:40;102558.22;;;19.30;39.93
72061;BME280;59925;52.136;5.420;2023-04-09T12:55:07;102549.94;;;19.17;41.40
72061;BME280;59925;52.136;5.420;2023-04-09T12:57:35;102549.13;;;19.16;39.69
72061;BME280;59925;52.136;5.420;2023-04-09T13:00:02;102554.63;;;19.35;40.00
72061;BME280;59925;52.136;5.420;2023-04-09T13:02:30;102555.41;;;19.65;39.26
72061;BME280;59925;52.136;5.420;2023-04-09T13:04:57;102548.22;;;19.74;39.08
72061;BME280;59925;52.136;5.420;2023-04-09T13:07:23;102554.03;;;19.92;38.92
72061;BME280;59925;52.136;5.420;2023-04-09T13:09:51;102552.94;;;19.93;38.92
72061;BME280;59925;52.136;5.420;2023-04-09T13:12:18;102550.94;;;19.26;39.74
72061;BME280;59925;52.136;5.420;2023-04-09T13:14:47;102544.59;;;19.06;40.47
72061;BME280;59925;52.136;5.420;2023-04-09T13:17:14;102544.50;;;19.17;40.18